sensor_id;sensor_type;location;lat;lon;timestamp;P1;durP1;ratioP1;P2;durP2;ratioP2
1569;SDS011;778;50.120;8.698;2022-11-15T00:02:37;13.43;;;11.07;;
1569;SDS011;778;50.120;8.698;2022-11-15T00:05:25;12.03;;;10.80;;
1569;SDS011;778;50.120;8.698;2022-11-15T00:08:12;12.40;;;11.20;;
1569;SDS011;778;50.120;8.698;2022-11-15T00:11:00;15.17;;;12.37;;
1569;SDS011;778;50.120;8.698;2022-11-15T00:13:49;13.90;;;12.50;;
1569;SDS011;778;50.120;8.698;2022-11-15T00:16:36;15.10;;;12.57;;
1569;SDS011;778;50.120;8.698;2022-11-15T00:19:23;12.83;;;11.53;;
1569;SDS011;778;50.120;8.698;2022-11-15T00:22:11;14.03;;;11.00;;
1569;SDS011;778;50.120;8.698;2022-11-15T00:24:58;14.63;;;11.90;;
1569;SDS011;778;50.120;8.698;2022-11-15T00:27:45;12.47;;;11.20;;
1569;SDS011;778;50.120;8.698;2022-11-15T00:30:32;12.73;;;10.93;;
1569;SDS011;778;50.120;8.698;2022-11-15T00:33:19;14.97;;;12.00;;
1569;SDS011;778;50.120;8.698;2022-11-15T00:36:07;14.13;;;12.57;;
1569;SDS011;778;50.120;8.698;2022-11-15T00:38:56;13.83;;;11.73;;
1569;SDS011;778;50.120;8.698;2022-11-15T00:41:43;14.17;;;12.57;;
1569;SDS011;778;50.120;8.698;2022-11-15T00:44:30;16.30;;;12.23;;
1569;SDS011;778;50.120;8.698;2022-11-15T00:47:17;17.07;;;12.00;;
1569;SDS011;778;50.120;8.698;2022-11-15T00:50:04;14.43;;;12.67;;
1569;SDS011;778;50.120;8.698;2022-11-15T00:52:58;15.63;;;12.17;;
1569;SDS011;778;50.120;8.698;2022-11-15T00:55:46;11.53;;;10.33;;
1569;SDS011;778;50.120;8.698;2022-11-15T00:58:33;12.67;;;11.13;;
1569;SDS011;778;50.120;8.698;2022-11-15T01:01:20;14.57;;;11.97;;
1569;SDS011;778;50.120;8.698;2022-11-15T01:04:07;13.70;;;11.40;;
1569;SDS011;778;50.120;8.698;2022-11-15T01:06:54;12.83;;;11.40;;
1569;SDS011;778;50.120;8.698;2022-11-15T01:09:42;14.50;;;12.97;;
1569;SDS011;778;50.120;8.698;2022-11-15T01:12:30;12.90;;;11.60;;
1569;SDS011;778;50.120;8.698;2022-11-15T01:15:18;13.63;;;11.80;;
1569;SDS011;778;50.120;8.698;2022-11-15T01:18:05;12.90;;;11.17;;
1569;SDS011;778;50.120;8.698;2022-11-15T01:20:52;13.10;;;11.20;;
1569;SDS011;778;50.120;8.698;2022-11-15T01:23:39;13.00;;;9.57;;
1569;SDS011;778;50.120;8.698;2022-11-15T01:26:26;11.97;;;10.77;;
1569;SDS011;778;50.120;8.698;2022-11-15T01:29:14;12.67;;;9.90;;
1569;SDS011;778;50.120;8.698;2022-11-15T01:32:02;12.20;;;11.00;;
1569;SDS011;778;50.120;8.698;2022-11-15T01:34:49;12.00;;;10.43;;
1569;SDS011;778;50.120;8.698;2022-11-15T01:37:36;10.50;;;9.37;;
1569;SDS011;778;50.120;8.698;2022-11-15T01:40:23;11.43;;;9.27;;
1569;SDS011;778;50.120;8.698;2022-11-15T01:43:21;10.67;;;8.60;;
1569;SDS011;778;50.120;8.698;2022-11-15T01:46:15;10.57;;;9.57;;
1569;SDS011;778;50.120;8.698;2022-11-15T01:49:14;11.13;;;9.23;;
1569;SDS011;778;50.120;8.698;2022-11-15T01:52:05;10.43;;;9.17;;
1569;SDS011;778;50.120;8.698;2022-11-15T01:54:58;9.60;;;8.60;;
1569;SDS011;778;50.120;8.698;2022-11-15T01:57:53;12.80;;;7.87;;
1569;SDS011;778;50.120;8.698;2022-11-15T02:00:44;9.70;;;8.70;;
1569;SDS011;778;50.120;8.698;2022-11-15T02:03:35;11.60;;;8.20;;
1569;SDS011;778;50.120;8.698;2022-11-15T02:06:28;11.27;;;8.30;;
1569;SDS011;778;50.120;8.698;2022-11-15T02:09:15;10.23;;;7.80;;
1569;SDS011;778;50.120;8.698;2022-11-15T02:12:04;8.30;;;7.50;;
1569;SDS011;778;50.120;8.698;2022-11-15T02:14:53;10.67;;;6.87;;
1569;SDS011;778;50.120;8.698;2022-11-15T02:17:54;9.30;;;7.40;;
1569;SDS011;778;50.120;8.698;2022-11-15T02:21:18;10.23;;;6.53;;
1569;SDS011;778;50.120;8.698;2022-11-15T02:24:26;6.60;;;6.00;;
1569;SDS011;778;50.120;8.698;2022-11-15T02:27:57;7.43;;;6.33;;
1569;SDS011;778;50.120;8.698;2022-11-15T02:31:29;8.13;;;6.07;;
1569;SDS011;778;50.120;8.698;2022-11-15T02:34:24;6.70;;;6.10;;
1569;SDS011;778;50.120;8.698;2022-11-15T02:37:21;7.77;;;5.50;;
1569;SDS011;778;50.120;8.698;2022-11-15T02:40:21;7.80;;;5.73;;
1569;SDS011;778;50.120;8.698;2022-11-15T02:43:18;7.57;;;6.87;;
1569;SDS011;778;50.120;8.698;2022-11-15T02:46:33;6.93;;;5.60;;
1569;SDS011;778;50.120;8.698;2022-11-15T02:49:44;6.80;;;6.10;;
1569;SDS011;778;50.120;8.698;2022-11-15T02:52:34;6.43;;;5.83;;
1569;SDS011;778;50.120;8.698;2022-11-15T02:55:24;8.10;;;6.40;;
1569;SDS011;778;50.120;8.698;2022-11-15T02:58:19;10.57;;;6.83;;
1569;SDS011;778;50.120;8.698;2022-11-15T03:01:38;7.37;;;6.47;;
1569;SDS011;778;50.120;8.698;2022-11-15T03:04:40;7.00;;;6.30;;
1569;SDS011;778;50.120;8.698;2022-11-15T03:07:35;8.10;;;6.10;;
1569;SDS011;778;50.120;8.698;2022-11-15T03:10:31;7.80;;;6.10;;
1569;SDS011;778;50.120;8.698;2022-11-15T03:13:30;8.57;;;5.90;;
1569;SDS011;778;50.120;8.698;2022-11-15T03:16:25;6.97;;;6.17;;
1569;SDS011;778;50.120;8.698;2022-11-15T03:19:22;8.97;;;7.30;;
1569;SDS011;778;50.120;8.698;2022-11-15T03:22:19;7.07;;;6.30;;
1569;SDS011;778;50.120;8.698;2022-11-15T03:25:10;10.03;;;6.60;;
1569;SDS011;778;50.120;8.698;2022-11-15T03:28:06;8.33;;;5.97;;
1569;SDS011;778;50.120;8.698;2022-11-15T03:30:58;7.47;;;6.77;;
1569;SDS011;778;50.120;8.698;2022-11-15T03:34:12;7.73;;;6.87;;
1569;SDS011;778;50.120;8.698;2022-11-15T03:37:11;7.80;;;7.00;;
1569;SDS011;778;50.120;8.698;2022-11-15T03:40:02;6.97;;;6.27;;
1569;SDS011;778;50.120;8.698;2022-11-15T03:42:53;8.90;;;7.10;;
1569;SDS011;778;50.120;8.698;2022-11-15T03:45:49;11.23;;;7.47;;
1569;SDS011;778;50.120;8.698;2022-11-15T03:48:43;10.23;;;6.87;;
1569;SDS011;778;50.120;8.698;2022-11-15T03:51:38;7.13;;;6.43;;
1569;SDS011;778;50.120;8.698;2022-11-15T03:54:25;7.17;;;6.47;;
1569;SDS011;778;50.120;8.698;2022-11-15T03:57:12;8.50;;;6.60;;
1569;SDS011;778;50.120;8.698;2022-11-15T03:59:59;13.17;;;8.00;;
1569;SDS011;778;50.120;8.698;2022-11-15T04:02:46;7.30;;;6.70;;
1569;SDS011;778;50.120;8.698;2022-11-15T04:05:33;8.63;;;7.53;;
1569;SDS011;778;50.120;8.698;2022-11-15T04:08:22;7.90;;;7.20;;
1569;SDS011;778;50.120;8.698;2022-11-15T04:11:09;8.30;;;7.50;;
1569;SDS011;778;50.120;8.698;2022-11-15T04:13:56;7.30;;;6.60;;
1569;SDS011;778;50.120;8.698;2022-11-15T04:16:43;8.10;;;7.40;;
1569;SDS011;778;50.120;8.698;2022-11-15T04:19:30;8.70;;;7.50;;
1569;SDS011;778;50.120;8.698;2022-11-15T04:22:34;7.90;;;7.20;;
1569;SDS011;778;50.120;8.698;2022-11-15T04:25:41;10.93;;;8.77;;
1569;SDS011;778;50.120;8.698;2022-11-15T04:28:28;8.10;;;7.30;;
1569;SDS011;778;50.120;8.698;2022-11-15T04:31:23;8.90;;;7.10;;
1569;SDS011;778;50.120;8.698;2022-11-15T04:34:10;10.30;;;7.50;;
1569;SDS011;778;50.120;8.698;2022-11-15T04:36:57;9.43;;;8.07;;
1569;SDS011;778;50.120;8.698;2022-11-15T04:40:01;7.73;;;7.03;;
1569;SDS011;778;50.120;8.698;2022-11-15T04:42:48;8.57;;;7.40;;
1569;SDS011;778;50.120;8.698;2022-11-15T04:45:35;9.03;;;8.13;;
1569;SDS011;778;50.120;8.698;2022-11-15T04:48:24;10.77;;;8.40;;
1569;SDS011;778;50.120;8.698;2022-11-15T04:51:11;9.03;;;8.07;;
1569;SDS011;778;50.120;8.698;2022-11-15T04:53:57;8.33;;;7.50;;
1569;SDS011;778;50.120;8.698;2022-11-15T04:56:44;6.70;;;6.10;;
1569;SDS011;778;50.120;8.698;2022-11-15T04:59:31;8.10;;;7.30;;
1569;SDS011;778;50.120;8.698;2022-11-15T05:02:18;7.73;;;6.63;;
1569;SDS011;778;50.120;8.698;2022-11-15T05:05:13;7.70;;;7.00;;
1569;SDS011;778;50.120;8.698;2022-11-15T05:07:58;10.60;;;7.00;;
1569;SDS011;778;50.120;8.698;2022-11-15T05:10:45;9.30;;;7.10;;
1569;SDS011;778;50.120;8.698;2022-11-15T05:13:33;8.43;;;6.60;;
1569;SDS011;778;50.120;8.698;2022-11-15T05:16:21;7.07;;;6.33;;
1569;SDS011;778;50.120;8.698;2022-11-15T05:19:08;9.40;;;7.00;;
1569;SDS011;778;50.120;8.698;2022-11-15T05:21:56;8.70;;;6.77;;
1569;SDS011;778;50.120;8.698;2022-11-15T05:24:43;10.40;;;7.00;;
1569;SDS011;778;50.120;8.698;2022-11-15T05:27:30;7.77;;;7.03;;
1569;SDS011;778;50.120;8.698;2022-11-15T05:30:17;7.77;;;6.87;;
1569;SDS011;778;50.120;8.698;2022-11-15T05:33:04;11.67;;;7.37;;
1569;SDS011;778;50.120;8.698;2022-11-15T05:35:54;6.83;;;6.20;;
1569;SDS011;778;50.120;8.698;2022-11-15T05:38:48;8.47;;;6.90;;
1569;SDS011;778;50.120;8.698;2022-11-15T05:41:35;7.47;;;6.47;;
1569;SDS011;778;50.120;8.698;2022-11-15T05:44:27;7.77;;;6.90;;
1569;SDS011;778;50.120;8.698;2022-11-15T05:47:15;11.07;;;7.73;;
1569;SDS011;778;50.120;8.698;2022-11-15T05:50:08;8.63;;;7.53;;
1569;SDS011;778;50.120;8.698;2022-11-15T05:52:58;9.80;;;7.17;;
1569;SDS011;778;50.120;8.698;2022-11-15T05:55:50;8.63;;;7.70;;
1569;SDS011;778;50.120;8.698;2022-11-15T05:58:37;12.93;;;8.63;;
1569;SDS011;778;50.120;8.698;2022-11-15T06:01:24;11.43;;;7.50;;
1569;SDS011;778;50.120;8.698;2022-11-15T06:04:13;11.77;;;7.57;;
1569;SDS011;778;50.120;8.698;2022-11-15T06:07:00;12.47;;;7.97;;
1569;SDS011;778;50.120;8.698;2022-11-15T06:09:47;14.43;;;8.43;;
1569;SDS011;778;50.120;8.698;2022-11-15T06:12:35;8.90;;;7.10;;
1569;SDS011;778;50.120;8.698;2022-11-15T06:15:22;9.50;;;7.93;;
1569;SDS011;778;50.120;8.698;2022-11-15T06:18:09;13.90;;;9.07;;
1569;SDS011;778;50.120;8.698;2022-11-15T06:20:58;8.27;;;7.23;;
1569;SDS011;778;50.120;8.698;2022-11-15T06:23:45;10.63;;;8.03;;
1569;SDS011;778;50.120;8.698;2022-11-15T06:26:32;11.73;;;7.97;;
1569;SDS011;778;50.120;8.698;2022-11-15T06:29:21;11.17;;;8.50;;
1569;SDS011;778;50.120;8.698;2022-11-15T06:32:08;10.50;;;8.23;;
1569;SDS011;778;50.120;8.698;2022-11-15T06:34:55;13.80;;;10.90;;
1569;SDS011;778;50.120;8.698;2022-11-15T06:37:42;12.30;;;9.30;;
1569;SDS011;778;50.120;8.698;2022-11-15T06:40:29;11.37;;;8.10;;
1569;SDS011;778;50.120;8.698;2022-11-15T06:43:16;9.83;;;8.83;;
1569;SDS011;778;50.120;8.698;2022-11-15T06:46:04;9.67;;;8.73;;
1569;SDS011;778;50.120;8.698;2022-11-15T06:48:52;13.53;;;9.17;;
1569;SDS011;778;50.120;8.698;2022-11-15T06:51:39;9.03;;;8.00;;
1569;SDS011;778;50.120;8.698;2022-11-15T06:54:26;13.37;;;8.80;;
1569;SDS011;778;50.120;8.698;2022-11-15T06:57:13;10.73;;;7.20;;
1569;SDS011;778;50.120;8.698;2022-11-15T07:00:00;9.77;;;7.60;;
1569;SDS011;778;50.120;8.698;2022-11-15T07:02:50;17.83;;;10.53;;
1569;SDS011;778;50.120;8.698;2022-11-15T07:05:37;14.47;;;7.47;;
1569;SDS011;778;50.120;8.698;2022-11-15T07:08:26;9.67;;;8.27;;
1569;SDS011;778;50.120;8.698;2022-11-15T07:11:14;16.20;;;8.73;;
1569;SDS011;778;50.120;8.698;2022-11-15T07:14:01;14.77;;;8.80;;
1569;SDS011;778;50.120;8.698;2022-11-15T07:16:48;17.33;;;9.57;;
1569;SDS011;778;50.120;8.698;2022-11-15T07:19:36;14.97;;;8.43;;
1569;SDS011;778;50.120;8.698;2022-11-15T07:22:23;14.47;;;8.87;;
1569;SDS011;778;50.120;8.698;2022-11-15T07:25:10;21.53;;;8.37;;
1569;SDS011;778;50.120;8.698;2022-11-15T07:27:58;16.83;;;8.90;;
1569;SDS011;778;50.120;8.698;2022-11-15T07:30:45;10.57;;;8.23;;
1569;SDS011;778;50.120;8.698;2022-11-15T07:33:33;16.50;;;8.00;;
1569;SDS011;778;50.120;8.698;2022-11-15T07:36:22;11.27;;;8.33;;
1569;SDS011;778;50.120;8.698;2022-11-15T07:39:09;17.57;;;9.47;;
1569;SDS011;778;50.120;8.698;2022-11-15T07:41:56;13.70;;;8.83;;
1569;SDS011;778;50.120;8.698;2022-11-15T07:44:57;13.73;;;8.00;;
1569;SDS011;778;50.120;8.698;2022-11-15T07:47:45;7.87;;;7.17;;
1569;SDS011;778;50.120;8.698;2022-11-15T07:50:32;10.00;;;7.87;;
1569;SDS011;778;50.120;8.698;2022-11-15T07:53:20;8.87;;;7.37;;
1569;SDS011;778;50.120;8.698;2022-11-15T07:56:07;13.70;;;7.03;;
1569;SDS011;778;50.120;8.698;2022-11-15T07:58:54;11.60;;;7.43;;
1569;SDS011;778;50.120;8.698;2022-11-15T08:01:42;19.23;;;7.90;;
1569;SDS011;778;50.120;8.698;2022-11-15T08:04:29;14.83;;;8.20;;
1569;SDS011;778;50.120;8.698;2022-11-15T08:07:16;12.87;;;8.57;;
1569;SDS011;778;50.120;8.698;2022-11-15T08:10:05;15.57;;;8.23;;
1569;SDS011;778;50.120;8.698;2022-11-15T08:12:57;10.77;;;7.90;;
1569;SDS011;778;50.120;8.698;2022-11-15T08:15:48;12.90;;;7.37;;
1569;SDS011;778;50.120;8.698;2022-11-15T08:18:41;11.07;;;7.77;;
1569;SDS011;778;50.120;8.698;2022-11-15T08:21:28;10.40;;;6.87;;
1569;SDS011;778;50.120;8.698;2022-11-15T08:24:15;9.63;;;7.97;;
1569;SDS011;778;50.120;8.698;2022-11-15T08:27:04;12.30;;;8.83;;
1569;SDS011;778;50.120;8.698;2022-11-15T08:29:59;9.43;;;8.37;;
1569;SDS011;778;50.120;8.698;2022-11-15T08:32:47;9.70;;;7.20;;
1569;SDS011;778;50.120;8.698;2022-11-15T08:35:35;7.90;;;6.43;;
1569;SDS011;778;50.120;8.698;2022-11-15T08:38:22;11.80;;;6.27;;
1569;SDS011;778;50.120;8.698;2022-11-15T08:41:10;10.73;;;7.23;;
1569;SDS011;778;50.120;8.698;2022-11-15T08:44:13;8.30;;;6.80;;
1569;SDS011;778;50.120;8.698;2022-11-15T08:46:59;10.10;;;5.70;;
1569;SDS011;778;50.120;8.698;2022-11-15T08:49:46;15.97;;;6.60;;
1569;SDS011;778;50.120;8.698;2022-11-15T08:52:33;6.43;;;5.83;;
1569;SDS011;778;50.120;8.698;2022-11-15T08:55:20;8.60;;;5.63;;
1569;SDS011;778;50.120;8.698;2022-11-15T08:58:09;7.13;;;5.40;;
1569;SDS011;778;50.120;8.698;2022-11-15T09:00:57;8.77;;;6.70;;
1569;SDS011;778;50.120;8.698;2022-11-15T09:03:45;9.00;;;6.60;;
1569;SDS011;778;50.120;8.698;2022-11-15T09:06:32;9.57;;;6.00;;
1569;SDS011;778;50.120;8.698;2022-11-15T09:09:22;6.20;;;5.60;;
1569;SDS011;778;50.120;8.698;2022-11-15T09:12:09;7.20;;;5.67;;
1569;SDS011;778;50.120;8.698;2022-11-15T09:14:56;7.50;;;4.90;;
1569;SDS011;778;50.120;8.698;2022-11-15T09:17:45;6.70;;;5.33;;
1569;SDS011;778;50.120;8.698;2022-11-15T09:20:32;6.43;;;5.60;;
1569;SDS011;778;50.120;8.698;2022-11-15T09:23:19;7.90;;;5.07;;
1569;SDS011;778;50.120;8.698;2022-11-15T09:26:06;7.20;;;5.13;;
1569;SDS011;778;50.120;8.698;2022-11-15T09:28:53;8.13;;;5.50;;
1569;SDS011;778;50.120;8.698;2022-11-15T09:31:40;8.77;;;5.43;;
1569;SDS011;778;50.120;8.698;2022-11-15T09:34:28;9.70;;;5.93;;
1569;SDS011;778;50.120;8.698;2022-11-15T09:37:15;7.03;;;6.07;;
1569;SDS011;778;50.120;8.698;2022-11-15T09:40:03;6.27;;;5.30;;
1569;SDS011;778;50.120;8.698;2022-11-15T09:42:54;9.73;;;6.33;;
1569;SDS011;778;50.120;8.698;2022-11-15T09:46:09;11.43;;;6.43;;
1569;SDS011;778;50.120;8.698;2022-11-15T09:49:01;6.77;;;6.17;;
1569;SDS011;778;50.120;8.698;2022-11-15T09:51:32;7.80;;;7.00;;
1569;SDS011;778;50.120;8.698;2022-11-15T09:54:04;7.47;;;6.77;;
1569;SDS011;778;50.120;8.698;2022-11-15T09:57:02;9.70;;;7.30;;
1569;SDS011;778;50.120;8.698;2022-11-15T10:00:04;9.50;;;6.60;;
1569;SDS011;778;50.120;8.698;2022-11-15T10:03:07;8.37;;;7.57;;
1569;SDS011;778;50.120;8.698;2022-11-15T10:05:40;7.90;;;7.07;;
1569;SDS011;778;50.120;8.698;2022-11-15T10:08:16;7.93;;;7.17;;
1569;SDS011;778;50.120;8.698;2022-11-15T10:10:57;17.20;;;7.07;;
1569;SDS011;778;50.120;8.698;2022-11-15T10:13:48;11.50;;;8.80;;
1569;SDS011;778;50.120;8.698;2022-11-15T10:16:31;8.07;;;7.23;;
1569;SDS011;778;50.120;8.698;2022-11-15T10:19:38;9.13;;;6.63;;
1569;SDS011;778;50.120;8.698;2022-11-15T10:22:30;9.60;;;6.20;;
1569;SDS011;778;50.120;8.698;2022-11-15T10:28:00;10.60;;;6.50;;
1569;SDS011;778;50.120;8.698;2022-11-15T10:30:39;11.73;;;6.70;;
1569;SDS011;778;50.120;8.698;2022-11-15T10:33:17;8.37;;;7.47;;
1569;SDS011;778;50.120;8.698;2022-11-15T10:38:52;5.57;;;5.07;;
1569;SDS011;778;50.120;8.698;2022-11-15T10:41:30;6.80;;;5.60;;
1569;SDS011;778;50.120;8.698;2022-11-15T10:44:11;5.80;;;5.07;;
1569;SDS011;778;50.120;8.698;2022-11-15T10:47:03;4.53;;;4.13;;
1569;SDS011;778;50.120;8.698;2022-11-15T10:49:56;5.90;;;5.30;;
1569;SDS011;778;50.120;8.698;2022-11-15T10:52:31;8.40;;;5.00;;
1569;SDS011;778;50.120;8.698;2022-11-15T10:55:12;5.63;;;5.13;;
1569;SDS011;778;50.120;8.698;2022-11-15T10:57:53;6.43;;;5.40;;
1569;SDS011;778;50.120;8.698;2022-11-15T11:00:35;7.00;;;5.30;;
1569;SDS011;778;50.120;8.698;2022-11-15T11:03:21;5.77;;;4.13;;
1569;SDS011;778;50.120;8.698;2022-11-15T11:06:06;4.83;;;4.43;;
1569;SDS011;778;50.120;8.698;2022-11-15T11:08:38;8.20;;;5.17;;
1569;SDS011;778;50.120;8.698;2022-11-15T11:11:07;9.33;;;5.90;;
1569;SDS011;778;50.120;8.698;2022-11-15T11:13:38;7.63;;;5.43;;
1569;SDS011;778;50.120;8.698;2022-11-15T11:19:36;5.23;;;4.73;;
1569;SDS011;778;50.120;8.698;2022-11-15T11:22:17;6.90;;;5.10;;
1569;SDS011;778;50.120;8.698;2022-11-15T11:24:56;6.10;;;5.07;;
1569;SDS011;778;50.120;8.698;2022-11-15T11:27:38;7.33;;;5.40;;
1569;SDS011;778;50.120;8.698;2022-11-15T11:30:16;6.23;;;5.73;;
1569;SDS011;778;50.120;8.698;2022-11-15T11:32:50;5.80;;;5.30;;
1569;SDS011;778;50.120;8.698;2022-11-15T11:35:34;5.40;;;4.90;;
1569;SDS011;778;50.120;8.698;2022-11-15T11:38:19;7.60;;;5.20;;
1569;SDS011;778;50.120;8.698;2022-11-15T11:41:10;5.40;;;4.90;;
1569;SDS011;778;50.120;8.698;2022-11-15T11:43:50;4.90;;;4.43;;
1569;SDS011;778;50.120;8.698;2022-11-15T11:49:25;5.20;;;4.80;;
1569;SDS011;778;50.120;8.698;2022-11-15T11:52:02;5.37;;;4.87;;
1569;SDS011;778;50.120;8.698;2022-11-15T11:54:43;6.00;;;4.80;;
1569;SDS011;778;50.120;8.698;2022-11-15T11:57:27;4.90;;;4.40;;
1569;SDS011;778;50.120;8.698;2022-11-15T12:00:03;4.83;;;4.43;;
1569;SDS011;778;50.120;8.698;2022-11-15T12:02:44;5.83;;;4.87;;
1569;SDS011;778;50.120;8.698;2022-11-15T12:05:22;5.77;;;4.60;;
1569;SDS011;778;50.120;8.698;2022-11-15T12:08:09;6.10;;;5.00;;
1569;SDS011;778;50.120;8.698;2022-11-15T12:10:57;4.80;;;4.30;;
1569;SDS011;778;50.120;8.698;2022-11-15T12:13:36;6.53;;;4.70;;
1569;SDS011;778;50.120;8.698;2022-11-15T12:16:09;4.90;;;4.33;;
1569;SDS011;778;50.120;8.698;2022-11-15T12:18:44;6.57;;;5.40;;
1569;SDS011;778;50.120;8.698;2022-11-15T12:21:19;8.53;;;4.83;;
1569;SDS011;778;50.120;8.698;2022-11-15T12:24:00;5.30;;;4.80;;
1569;SDS011;778;50.120;8.698;2022-11-15T12:26:33;5.50;;;4.97;;
1569;SDS011;778;50.120;8.698;2022-11-15T12:29:09;7.20;;;5.07;;
1569;SDS011;778;50.120;8.698;2022-11-15T12:31:44;5.17;;;4.67;;
1569;SDS011;778;50.120;8.698;2022-11-15T12:34:37;4.57;;;4.10;;
1569;SDS011;778;50.120;8.698;2022-11-15T12:37:33;5.70;;;4.43;;
1569;SDS011;778;50.120;8.698;2022-11-15T12:40:23;11.27;;;4.33;;
1569;SDS011;778;50.120;8.698;2022-11-15T12:43:04;4.70;;;4.23;;
1569;SDS011;778;50.120;8.698;2022-11-15T12:46:04;4.73;;;4.33;;
1569;SDS011;778;50.120;8.698;2022-11-15T12:48:47;6.40;;;3.93;;
1569;SDS011;778;50.120;8.698;2022-11-15T12:51:23;5.00;;;3.90;;
1569;SDS011;778;50.120;8.698;2022-11-15T12:54:53;5.33;;;4.50;;
1569;SDS011;778;50.120;8.698;2022-11-15T12:57:40;5.33;;;4.17;;
1569;SDS011;778;50.120;8.698;2022-11-15T13:03:27;7.30;;;4.63;;
1569;SDS011;778;50.120;8.698;2022-11-15T13:06:04;7.13;;;5.00;;
1569;SDS011;778;50.120;8.698;2022-11-15T13:08:38;4.90;;;3.73;;
1569;SDS011;778;50.120;8.698;2022-11-15T13:14:46;5.60;;;3.70;;
1569;SDS011;778;50.120;8.698;2022-11-15T13:17:28;5.93;;;3.90;;
1569;SDS011;778;50.120;8.698;2022-11-15T13:20:14;4.27;;;3.87;;
1569;SDS011;778;50.120;8.698;2022-11-15T13:23:02;4.27;;;3.80;;
1569;SDS011;778;50.120;8.698;2022-11-15T13:28:36;3.80;;;2.83;;
1569;SDS011;778;50.120;8.698;2022-11-15T13:31:17;3.63;;;2.83;;
1569;SDS011;778;50.120;8.698;2022-11-15T13:34:02;4.30;;;3.90;;
1569;SDS011;778;50.120;8.698;2022-11-15T13:37:03;4.33;;;3.00;;
1569;SDS011;778;50.120;8.698;2022-11-15T13:39:43;3.07;;;2.40;;
1569;SDS011;778;50.120;8.698;2022-11-15T13:42:30;2.57;;;2.37;;
1569;SDS011;778;50.120;8.698;2022-11-15T13:44:59;2.70;;;2.10;;
1569;SDS011;778;50.120;8.698;2022-11-15T13:47:37;3.40;;;2.30;;
1569;SDS011;778;50.120;8.698;2022-11-15T13:50:05;2.50;;;2.23;;
1569;SDS011;778;50.120;8.698;2022-11-15T13:52:39;7.23;;;2.73;;
1569;SDS011;778;50.120;8.698;2022-11-15T13:55:12;5.40;;;2.27;;
1569;SDS011;778;50.120;8.698;2022-11-15T13:57:45;3.40;;;2.10;;
1569;SDS011;778;50.120;8.698;2022-11-15T14:03:14;3.00;;;2.10;;
1569;SDS011;778;50.120;8.698;2022-11-15T14:06:00;4.60;;;2.30;;
1569;SDS011;778;50.120;8.698;2022-11-15T14:08:34;5.20;;;2.77;;
1569;SDS011;778;50.120;8.698;2022-11-15T14:11:12;6.07;;;2.80;;
1569;SDS011;778;50.120;8.698;2022-11-15T14:16:49;6.33;;;2.73;;
1569;SDS011;778;50.120;8.698;2022-11-15T14:19:36;6.30;;;3.13;;
1569;SDS011;778;50.120;8.698;2022-11-15T14:22:07;2.83;;;2.53;;
1569;SDS011;778;50.120;8.698;2022-11-15T14:24:45;3.83;;;2.77;;
1569;SDS011;778;50.120;8.698;2022-11-15T14:27:30;5.97;;;3.30;;
1569;SDS011;778;50.120;8.698;2022-11-15T14:30:01;2.47;;;2.27;;
1569;SDS011;778;50.120;8.698;2022-11-15T14:32:39;2.03;;;1.90;;
1569;SDS011;778;50.120;8.698;2022-11-15T14:35:18;4.53;;;3.00;;
1569;SDS011;778;50.120;8.698;2022-11-15T14:37:49;3.73;;;2.73;;
1569;SDS011;778;50.120;8.698;2022-11-15T14:40:18;7.50;;;2.67;;
1569;SDS011;778;50.120;8.698;2022-11-15T14:42:49;4.07;;;2.53;;
1569;SDS011;778;50.120;8.698;2022-11-15T14:45:22;4.53;;;3.33;;
1569;SDS011;778;50.120;8.698;2022-11-15T14:47:50;2.80;;;2.60;;
1569;SDS011;778;50.120;8.698;2022-11-15T14:50:19;3.30;;;2.50;;
1569;SDS011;778;50.120;8.698;2022-11-15T14:52:49;3.60;;;2.53;;
1569;SDS011;778;50.120;8.698;2022-11-15T14:55:20;4.50;;;2.83;;
1569;SDS011;778;50.120;8.698;2022-11-15T14:57:51;2.40;;;2.20;;
1569;SDS011;778;50.120;8.698;2022-11-15T15:00:27;3.33;;;2.37;;
1569;SDS011;778;50.120;8.698;2022-11-15T15:03:08;4.83;;;2.80;;
1569;SDS011;778;50.120;8.698;2022-11-15T15:05:40;2.87;;;2.43;;
1569;SDS011;778;50.120;8.698;2022-11-15T15:08:10;4.93;;;2.70;;
1569;SDS011;778;50.120;8.698;2022-11-15T15:10:39;5.20;;;2.50;;
1569;SDS011;778;50.120;8.698;2022-11-15T15:13:13;5.00;;;2.70;;
1569;SDS011;778;50.120;8.698;2022-11-15T15:15:47;4.23;;;3.67;;
1569;SDS011;778;50.120;8.698;2022-11-15T15:18:17;6.00;;;2.80;;
1569;SDS011;778;50.120;8.698;2022-11-15T15:20:47;6.10;;;3.73;;
1569;SDS011;778;50.120;8.698;2022-11-15T15:23:22;9.10;;;4.00;;
1569;SDS011;778;50.120;8.698;2022-11-15T15:25:53;7.10;;;4.50;;
1569;SDS011;778;50.120;8.698;2022-11-15T15:28:21;8.23;;;4.10;;
1569;SDS011;778;50.120;8.698;2022-11-15T15:30:56;4.90;;;4.40;;
1569;SDS011;778;50.120;8.698;2022-11-15T15:33:25;4.97;;;4.47;;
1569;SDS011;778;50.120;8.698;2022-11-15T15:35:53;6.47;;;3.97;;
1569;SDS011;778;50.120;8.698;2022-11-15T15:38:21;7.00;;;4.20;;
1569;SDS011;778;50.120;8.698;2022-11-15T15:40:50;12.93;;;5.03;;
1569;SDS011;778;50.120;8.698;2022-11-15T15:43:18;8.90;;;5.50;;
1569;SDS011;778;50.120;8.698;2022-11-15T15:45:47;8.33;;;4.93;;
1569;SDS011;778;50.120;8.698;2022-11-15T15:48:16;8.93;;;4.20;;
1569;SDS011;778;50.120;8.698;2022-11-15T15:50:45;5.40;;;4.23;;
1569;SDS011;778;50.120;8.698;2022-11-15T15:53:13;9.50;;;5.57;;
1569;SDS011;778;50.120;8.698;2022-11-15T15:55:42;8.13;;;6.20;;
1569;SDS011;778;50.120;8.698;2022-11-15T15:58:10;7.03;;;4.53;;
1569;SDS011;778;50.120;8.698;2022-11-15T16:00:38;5.50;;;4.80;;
1569;SDS011;778;50.120;8.698;2022-11-15T16:03:07;5.63;;;5.03;;
1569;SDS011;778;50.120;8.698;2022-11-15T16:05:40;5.47;;;4.70;;
1569;SDS011;778;50.120;8.698;2022-11-15T16:08:10;5.30;;;4.33;;
1569;SDS011;778;50.120;8.698;2022-11-15T16:10:46;6.07;;;4.90;;
1569;SDS011;778;50.120;8.698;2022-11-15T16:13:14;5.10;;;4.07;;
1569;SDS011;778;50.120;8.698;2022-11-15T16:15:43;5.50;;;4.50;;
1569;SDS011;778;50.120;8.698;2022-11-15T16:18:16;10.40;;;7.57;;
1569;SDS011;778;50.120;8.698;2022-11-15T16:20:47;4.77;;;4.23;;
1569;SDS011;778;50.120;8.698;2022-11-15T16:23:18;7.10;;;5.10;;
1569;SDS011;778;50.120;8.698;2022-11-15T16:25:50;6.60;;;4.40;;
1569;SDS011;778;50.120;8.698;2022-11-15T16:28:22;6.30;;;4.50;;
1569;SDS011;778;50.120;8.698;2022-11-15T16:30:59;5.10;;;4.30;;
1569;SDS011;778;50.120;8.698;2022-11-15T16:33:32;9.30;;;4.30;;
1569;SDS011;778;50.120;8.698;2022-11-15T16:36:20;6.63;;;5.37;;
1569;SDS011;778;50.120;8.698;2022-11-15T16:38:56;5.00;;;3.70;;
1569;SDS011;778;50.120;8.698;2022-11-15T16:41:25;8.13;;;4.43;;
1569;SDS011;778;50.120;8.698;2022-11-15T16:43:54;6.20;;;4.00;;
1569;SDS011;778;50.120;8.698;2022-11-15T16:46:23;7.20;;;5.10;;
1569;SDS011;778;50.120;8.698;2022-11-15T16:48:53;5.53;;;4.20;;
1569;SDS011;778;50.120;8.698;2022-11-15T16:51:23;6.70;;;4.03;;
1569;SDS011;778;50.120;8.698;2022-11-15T16:53:52;7.80;;;3.87;;
1569;SDS011;778;50.120;8.698;2022-11-15T16:56:22;4.87;;;4.30;;
1569;SDS011;778;50.120;8.698;2022-11-15T16:58:53;7.47;;;4.80;;
1569;SDS011;778;50.120;8.698;2022-11-15T17:01:24;7.90;;;4.50;;
1569;SDS011;778;50.120;8.698;2022-11-15T17:03:55;3.40;;;3.10;;
1569;SDS011;778;50.120;8.698;2022-11-15T17:06:25;6.20;;;4.17;;
1569;SDS011;778;50.120;8.698;2022-11-15T17:08:54;5.83;;;3.80;;
1569;SDS011;778;50.120;8.698;2022-11-15T17:11:22;5.73;;;3.93;;
1569;SDS011;778;50.120;8.698;2022-11-15T17:13:50;6.50;;;4.17;;
1569;SDS011;778;50.120;8.698;2022-11-15T17:16:25;5.87;;;4.93;;
1569;SDS011;778;50.120;8.698;2022-11-15T17:18:53;4.37;;;3.97;;
1569;SDS011;778;50.120;8.698;2022-11-15T17:21:22;4.83;;;3.80;;
1569;SDS011;778;50.120;8.698;2022-11-15T17:23:59;6.23;;;4.27;;
1569;SDS011;778;50.120;8.698;2022-11-15T17:26:27;8.03;;;4.33;;
1569;SDS011;778;50.120;8.698;2022-11-15T17:29:01;5.50;;;3.77;;
1569;SDS011;778;50.120;8.698;2022-11-15T17:31:33;5.00;;;4.40;;
1569;SDS011;778;50.120;8.698;2022-11-15T17:34:03;6.63;;;4.57;;
1569;SDS011;778;50.120;8.698;2022-11-15T17:36:34;10.97;;;4.90;;
1569;SDS011;778;50.120;8.698;2022-11-15T17:39:03;4.93;;;4.40;;
1569;SDS011;778;50.120;8.698;2022-11-15T17:41:32;7.17;;;4.97;;